Tampa, Florida
Traffic Map
Current Weather Conditions
Tampa, Florida
Broken Clouds
Broken Clouds
93°
Feels Like: 102°
Wind Chill: 93° Ceiling: 4300
Heat Index: 102° Visibility: 10mi
Dew Point: 73° Wind: 9mph
Humidity: 52% Direction: 80° (E)
Pressure: 29.92in Gusts: 18mph
Raw Report DataKTPA 281853Z 08008G16KT 10SM BKN043TCU BKN300 34/23 A2992 RMK AO2 SLP130 TCU NE-S T03390228
Traffic Incident Summary
Active as of:
Severity:
Category:
InformationThere was an issue retrieving the traffic information for this location. Please try a different location or try again shortly.
Advertisements
Track Severe Weather on mobile